createdAt,value
2017-08-21T00:01:51.628Z,4.23
2017-08-21T00:04:20.061Z,4.40
2017-08-21T00:06:48.504Z,4.20
2017-08-21T00:09:16.984Z,3.50
2017-08-21T00:11:45.469Z,4.83
2017-08-21T00:14:13.942Z,5.53
2017-08-21T00:16:42.370Z,4.30
2017-08-21T00:19:10.908Z,4.03
2017-08-21T00:21:39.336Z,4.40
2017-08-21T00:24:07.797Z,4.80
2017-08-21T00:26:36.229Z,3.90
2017-08-21T00:29:05.522Z,4.27
2017-08-21T00:31:34.750Z,3.60
2017-08-21T00:34:03.235Z,4.10
2017-08-21T00:36:31.663Z,4.47
2017-08-21T00:39:00.108Z,5.40
2017-08-21T00:41:28.590Z,4.90
2017-08-21T00:43:57.053Z,5.07
2017-08-21T00:46:25.548Z,5.20
2017-08-21T00:48:54.023Z,5.70
2017-08-21T00:51:22.452Z,5.57
2017-08-21T00:53:50.987Z,5.00
2017-08-21T00:56:19.487Z,6.40
2017-08-21T00:58:48.066Z,6.40
2017-08-21T01:01:16.550Z,6.97
2017-08-21T01:03:45.039Z,6.63
2017-08-21T01:06:13.501Z,6.87
2017-08-21T01:08:41.979Z,7.17
2017-08-21T01:11:10.472Z,7.43
2017-08-21T01:13:38.958Z,7.00
2017-08-21T01:16:07.421Z,8.30
2017-08-21T01:18:35.839Z,6.53
2017-08-21T01:21:04.296Z,7.23
2017-08-21T01:23:32.736Z,7.40
2017-08-21T01:26:01.972Z,7.40
2017-08-21T01:28:30.417Z,7.47
2017-08-21T01:30:59.662Z,7.63
2017-08-21T01:33:28.136Z,7.37
2017-08-21T01:35:56.616Z,6.80
2017-08-21T01:38:25.110Z,6.70
2017-08-21T01:40:53.596Z,7.27
2017-08-21T01:43:22.075Z,6.60
2017-08-21T01:45:50.523Z,7.57
2017-08-21T01:48:19.743Z,6.50
2017-08-21T01:50:48.200Z,6.90
2017-08-21T01:53:17.423Z,6.70
2017-08-21T01:55:46.018Z,7.30
2017-08-21T01:58:14.497Z,6.20
2017-08-21T02:00:42.982Z,6.90
2017-08-21T02:03:11.431Z,5.87
2017-08-21T02:05:40.663Z,7.30
2017-08-21T02:08:09.125Z,6.10
2017-08-21T02:10:37.611Z,6.60
2017-08-21T02:13:06.099Z,5.80
2017-08-21T02:15:34.579Z,6.60
2017-08-21T02:18:03.074Z,6.10
2017-08-21T02:20:31.521Z,6.63
2017-08-21T02:23:00.844Z,6.40
2017-08-21T02:25:29.339Z,6.50
2017-08-21T02:27:57.801Z,6.57
2017-08-21T02:30:26.237Z,6.07
2017-08-21T02:32:54.706Z,6.27
2017-08-21T02:35:23.155Z,5.60
2017-08-21T02:37:51.635Z,5.63
2017-08-21T02:40:20.073Z,5.90
2017-08-21T02:42:48.606Z,5.27
2017-08-21T02:45:17.053Z,7.20
2017-08-21T02:47:46.276Z,6.43
2017-08-21T02:50:14.769Z,5.47
2017-08-21T02:52:43.215Z,5.23
2017-08-21T02:55:12.422Z,4.97
2017-08-21T02:57:40.923Z,5.43
2017-08-21T03:00:09.403Z,5.40
2017-08-21T03:02:37.852Z,5.33
2017-08-21T03:05:07.083Z,5.87
2017-08-21T03:07:35.522Z,5.67
2017-08-21T03:10:03.964Z,5.60
2017-08-21T03:12:32.405Z,6.33
2017-08-21T03:15:01.743Z,6.03
2017-08-21T03:17:30.211Z,5.03
2017-08-21T03:19:58.694Z,5.90
2017-08-21T03:22:27.295Z,6.50
2017-08-21T03:24:55.773Z,6.40
2017-08-21T03:27:24.262Z,6.07
2017-08-21T03:29:52.723Z,5.93
2017-08-21T03:32:21.208Z,6.20
2017-08-21T03:34:49.655Z,6.30
2017-08-21T03:37:18.172Z,6.10
2017-08-21T03:39:46.629Z,5.30
2017-08-21T03:42:15.855Z,6.37
2017-08-21T03:44:44.313Z,6.63
2017-08-21T03:47:13.513Z,6.00
2017-08-21T03:49:42.728Z,5.60
2017-08-21T03:52:11.156Z,5.40
2017-08-21T03:54:39.707Z,5.80
2017-08-21T03:57:08.154Z,5.80
2017-08-21T03:59:37.490Z,5.03
2017-08-21T04:02:05.959Z,5.83
2017-08-21T04:04:34.453Z,5.60
2017-08-21T04:07:02.896Z,4.67
2017-08-21T04:09:32.107Z,5.50
2017-08-21T04:12:00.545Z,6.00
2017-08-21T04:14:28.991Z,6.40
2017-08-21T04:16:57.411Z,5.10
2017-08-21T04:19:25.853Z,4.53
2017-08-21T04:21:54.332Z,4.87
2017-08-21T04:24:22.756Z,5.20
2017-08-21T04:26:51.300Z,5.47
2017-08-21T04:29:19.772Z,5.60
2017-08-21T04:31:48.219Z,7.23
2017-08-21T04:34:17.415Z,4.90
2017-08-21T04:36:45.930Z,5.47
2017-08-21T04:39:14.428Z,7.33
2017-08-21T04:41:42.905Z,5.47
2017-08-21T04:44:11.384Z,6.00
2017-08-21T04:46:39.836Z,5.23
2017-08-21T04:49:09.064Z,5.37
2017-08-21T04:51:37.553Z,4.67
2017-08-21T04:54:06.027Z,5.77
2017-08-21T04:56:34.485Z,5.70
2017-08-21T04:59:03.712Z,6.00
2017-08-21T05:01:32.155Z,5.00
2017-08-21T05:04:01.347Z,6.13
2017-08-21T05:06:29.808Z,5.23
2017-08-21T05:08:58.245Z,5.70
2017-08-21T05:11:26.736Z,5.33
2017-08-21T05:13:55.221Z,4.70
2017-08-21T05:16:23.706Z,5.93
2017-08-21T05:18:52.190Z,5.80
2017-08-21T05:21:20.656Z,6.33
2017-08-21T05:23:49.147Z,5.80
2017-08-21T05:26:17.638Z,6.13
2017-08-21T05:28:46.120Z,5.23
2017-08-21T05:31:14.551Z,6.13
2017-08-21T05:33:43.800Z,5.60
2017-08-21T05:36:12.268Z,6.60
2017-08-21T05:38:40.715Z,5.90
2017-08-21T05:41:09.943Z,6.40
2017-08-21T05:43:38.443Z,6.70
2017-08-21T05:46:06.916Z,6.60
2017-08-21T05:48:35.412Z,6.97
2017-08-21T05:51:03.843Z,6.67
2017-08-21T05:53:33.090Z,5.57
2017-08-21T05:56:01.515Z,5.67
2017-08-21T05:58:30.048Z,5.40
2017-08-21T06:00:58.512Z,5.83
2017-08-21T06:03:27.013Z,5.00
2017-08-21T06:05:55.453Z,5.60
2017-08-21T06:08:24.787Z,6.40
2017-08-21T06:10:53.281Z,5.50
2017-08-21T06:13:21.715Z,6.10
2017-08-21T06:15:50.931Z,5.13
2017-08-21T06:18:20.151Z,4.40
2017-08-21T06:20:48.608Z,6.47
2017-08-21T06:23:17.805Z,5.60
2017-08-21T06:25:47.135Z,5.23
2017-08-21T06:28:15.582Z,5.13
2017-08-21T06:30:44.811Z,5.47
2017-08-21T06:33:13.296Z,5.33
2017-08-21T06:35:41.733Z,5.40
2017-08-21T06:38:10.162Z,4.93
2017-08-21T06:40:38.613Z,4.60
2017-08-21T06:43:07.121Z,4.10
2017-08-21T06:45:35.607Z,4.60
2017-08-21T06:48:04.036Z,4.57
2017-08-21T06:50:32.492Z,4.67
2017-08-21T06:53:00.925Z,6.23
2017-08-21T06:55:29.438Z,5.00
2017-08-21T06:57:57.913Z,4.20
2017-08-21T07:00:26.491Z,4.43
2017-08-21T07:02:54.929Z,4.30
2017-08-21T07:05:23.461Z,4.60
2017-08-21T07:07:52.025Z,3.90
2017-08-21T07:10:20.524Z,3.93
2017-08-21T07:12:49.003Z,3.50
2017-08-21T07:15:17.488Z,3.83
2017-08-21T07:17:45.981Z,3.00
2017-08-21T07:20:14.416Z,5.10
2017-08-21T07:22:43.645Z,4.93
2017-08-21T07:25:12.145Z,3.63
2017-08-21T07:27:40.627Z,3.37
2017-08-21T07:30:09.072Z,3.70
2017-08-21T07:32:38.400Z,4.00
2017-08-21T07:35:06.822Z,4.20
2017-08-21T07:37:35.271Z,3.60
2017-08-21T07:40:03.708Z,4.37
2017-08-21T07:42:32.954Z,3.87
2017-08-21T07:45:01.394Z,3.17
2017-08-21T07:47:30.739Z,2.67
2017-08-21T07:49:59.219Z,3.77
2017-08-21T07:52:27.673Z,3.60
2017-08-21T07:54:56.119Z,3.37
2017-08-21T07:57:24.558Z,3.40
2017-08-21T07:59:53.021Z,3.53
2017-08-21T08:02:21.439Z,2.77
2017-08-21T08:04:49.884Z,3.67
2017-08-21T08:07:18.371Z,3.73
2017-08-21T08:09:46.832Z,3.70
2017-08-21T08:12:16.056Z,2.90
2017-08-21T08:14:44.540Z,3.53
2017-08-21T08:17:13.030Z,3.20
2017-08-21T08:19:41.495Z,3.20
2017-08-21T08:22:09.921Z,2.97
2017-08-21T08:24:38.463Z,3.40
2017-08-21T08:27:06.887Z,3.57
2017-08-21T08:29:35.429Z,3.47
2017-08-21T08:32:03.918Z,4.23
2017-08-21T08:34:32.373Z,3.27
2017-08-21T08:37:00.867Z,3.70
2017-08-21T08:39:29.374Z,4.30
2017-08-21T08:41:57.850Z,4.07
2017-08-21T08:44:26.279Z,3.90
2017-08-21T08:46:54.809Z,3.43
2017-08-21T08:49:23.279Z,3.50
2017-08-21T08:51:51.778Z,3.90
2017-08-21T08:54:20.240Z,3.73
2017-08-21T08:56:48.733Z,3.80
2017-08-21T08:59:17.169Z,3.80
2017-08-21T09:01:45.705Z,2.67
2017-08-21T09:04:14.193Z,3.40
2017-08-21T09:06:42.660Z,3.27
2017-08-21T09:09:11.154Z,2.93
2017-08-21T09:11:39.589Z,4.10
2017-08-21T09:14:08.823Z,3.43
2017-08-21T09:16:38.232Z,3.60
2017-08-21T09:19:06.669Z,3.60
2017-08-21T09:21:35.892Z,2.93
2017-08-21T09:24:04.406Z,3.47
2017-08-21T09:26:32.852Z,3.27
2017-08-21T09:29:01.366Z,3.43
2017-08-21T09:31:29.831Z,3.00
2017-08-21T09:33:58.255Z,2.77
2017-08-21T09:36:26.719Z,3.00
2017-08-21T09:38:55.189Z,2.57
2017-08-21T09:41:23.624Z,3.07
2017-08-21T09:43:52.849Z,3.50
2017-08-21T09:46:21.351Z,3.53
2017-08-21T09:48:49.803Z,3.00
2017-08-21T09:51:18.299Z,2.30
2017-08-21T09:53:46.788Z,2.97
2017-08-21T09:56:15.278Z,4.90
2017-08-21T09:58:43.729Z,2.43
2017-08-21T10:01:12.933Z,2.50
2017-08-21T10:03:41.443Z,2.83
2017-08-21T10:06:09.871Z,2.27
2017-08-21T10:08:38.401Z,2.33
2017-08-21T10:11:06.885Z,1.70
2017-08-21T10:13:35.375Z,2.73
2017-08-21T10:16:36.000Z,2.60
2017-08-21T10:19:04.481Z,2.13
2017-08-21T10:21:32.904Z,1.93
2017-08-21T10:24:01.358Z,2.10
2017-08-21T10:26:29.832Z,1.97
2017-08-21T10:28:58.295Z,2.50
2017-08-21T10:31:26.725Z,1.53
2017-08-21T10:33:55.273Z,1.50
2017-08-21T10:36:23.709Z,1.83
2017-08-21T10:38:52.241Z,1.90
2017-08-21T10:41:20.685Z,1.90
2017-08-21T10:43:49.187Z,2.13
2017-08-21T10:46:17.675Z,2.00
2017-08-21T10:48:46.165Z,1.60
2017-08-21T10:51:14.601Z,1.83
2017-08-21T10:53:43.124Z,1.77
2017-08-21T10:56:11.599Z,1.70
2017-08-21T10:58:40.043Z,1.47
2017-08-21T11:01:08.581Z,2.53
2017-08-21T11:03:37.048Z,1.63
2017-08-21T11:06:05.532Z,2.20
2017-08-21T11:08:33.989Z,1.37
2017-08-21T11:11:02.507Z,2.10
2017-08-21T11:13:30.957Z,1.77
2017-08-21T11:15:59.401Z,1.60
2017-08-21T11:18:27.949Z,1.30
2017-08-21T11:20:56.434Z,1.93
2017-08-21T11:23:24.908Z,1.70
2017-08-21T11:25:53.395Z,1.80
2017-08-21T11:28:21.888Z,1.57
2017-08-21T11:30:50.345Z,1.67
2017-08-21T11:33:18.850Z,1.90
2017-08-21T11:35:47.294Z,1.90
2017-08-21T11:38:16.515Z,1.80
2017-08-21T11:40:44.955Z,1.50
2017-08-21T11:43:13.383Z,1.37
2017-08-21T11:45:41.846Z,1.40
2017-08-21T11:48:10.848Z,1.20
2017-08-21T11:50:39.341Z,1.87
2017-08-21T11:53:07.767Z,1.30
2017-08-21T11:55:36.229Z,1.33
2017-08-21T11:58:04.651Z,1.27
2017-08-21T12:00:33.109Z,1.73
2017-08-21T12:03:01.532Z,1.70
2017-08-21T12:05:30.025Z,1.57
2017-08-21T12:07:58.504Z,1.63
2017-08-21T12:10:26.992Z,1.67
2017-08-21T12:12:55.420Z,1.43
2017-08-21T12:15:23.943Z,1.27
2017-08-21T12:17:52.377Z,1.13
2017-08-21T12:20:20.912Z,1.63
2017-08-21T12:22:49.345Z,1.40
2017-08-21T12:25:17.885Z,1.37
2017-08-21T12:27:46.360Z,1.57
2017-08-21T12:30:14.817Z,1.67
2017-08-21T12:32:43.328Z,4.10
2017-08-21T12:35:11.818Z,1.87
2017-08-21T12:37:40.288Z,1.43
2017-08-21T12:40:08.785Z,1.60
2017-08-21T12:42:37.225Z,1.83
2017-08-21T12:45:05.663Z,2.27
2017-08-21T12:47:34.108Z,1.70
2017-08-21T12:50:02.526Z,2.53
2017-08-21T12:52:31.085Z,1.90
2017-08-21T12:54:59.551Z,1.37
2017-08-21T12:57:28.013Z,1.50
2017-08-21T12:59:56.533Z,2.20
2017-08-21T13:02:24.992Z,1.83
2017-08-21T13:04:53.499Z,1.70
2017-08-21T13:07:21.972Z,1.37
2017-08-21T13:09:50.461Z,1.43
2017-08-21T13:12:18.913Z,1.27
2017-08-21T13:14:47.434Z,1.50
2017-08-21T13:17:15.888Z,1.37
2017-08-21T13:19:44.395Z,1.37
2017-08-21T13:22:12.855Z,1.30
2017-08-21T13:24:41.343Z,1.37
2017-08-21T13:27:09.801Z,1.50
2017-08-21T13:29:38.224Z,2.03
2017-08-21T13:32:06.673Z,2.87
2017-08-21T13:34:35.159Z,2.43
2017-08-21T13:37:03.614Z,2.13
2017-08-21T13:39:32.045Z,3.20
2017-08-21T13:42:00.785Z,3.47
2017-08-21T13:44:29.313Z,1.80
2017-08-21T13:46:57.755Z,2.80
2017-08-21T13:49:26.265Z,3.97
2017-08-21T13:51:54.687Z,2.07
2017-08-21T13:54:23.136Z,2.73
2017-08-21T13:56:51.608Z,1.83
2017-08-21T13:59:20.065Z,1.63
2017-08-21T14:01:48.577Z,1.80
2017-08-21T14:04:17.024Z,2.40
2017-08-21T14:06:45.462Z,1.70
2017-08-21T14:09:13.992Z,1.67
2017-08-21T14:11:42.495Z,1.80
2017-08-21T14:14:10.976Z,1.33
2017-08-21T14:16:39.476Z,1.33
2017-08-21T14:19:07.919Z,1.90
2017-08-21T14:21:36.427Z,1.57
2017-08-21T14:24:04.912Z,1.47
2017-08-21T14:26:33.401Z,1.63
2017-08-21T14:29:01.873Z,1.57
2017-08-21T14:31:30.296Z,1.30
2017-08-21T14:33:58.850Z,1.30
2017-08-21T14:36:27.316Z,1.37
2017-08-21T14:38:55.813Z,1.20
2017-08-21T14:41:24.279Z,1.10
2017-08-21T14:43:52.771Z,1.30
2017-08-21T14:46:21.242Z,1.43
2017-08-21T14:48:49.663Z,1.47
2017-08-21T14:51:18.125Z,1.83
2017-08-21T14:53:46.595Z,1.30
2017-08-21T14:56:15.035Z,1.53
2017-08-21T14:58:43.556Z,1.60
2017-08-21T15:01:12.047Z,1.43
2017-08-21T15:03:40.484Z,1.40
2017-08-21T15:06:09.004Z,1.60
2017-08-21T15:08:37.498Z,1.37
2017-08-21T15:11:05.939Z,1.63
2017-08-21T15:13:34.363Z,1.90
2017-08-21T15:16:02.832Z,1.40
2017-08-21T15:18:31.307Z,1.23
2017-08-21T15:20:59.801Z,1.50
2017-08-21T15:23:28.233Z,1.07
2017-08-21T15:25:56.765Z,1.60
2017-08-21T15:28:25.246Z,1.40
2017-08-21T15:30:53.699Z,1.47
2017-08-21T15:33:22.195Z,1.30
2017-08-21T15:35:50.649Z,0.90
2017-08-21T15:38:19.884Z,1.43
2017-08-21T15:40:48.344Z,1.67
2017-08-21T15:43:16.851Z,1.57
2017-08-21T15:45:45.327Z,1.70
2017-08-21T15:48:13.751Z,1.37
2017-08-21T15:50:42.228Z,1.67
2017-08-21T15:53:10.672Z,1.60
2017-08-21T15:55:39.152Z,1.70
2017-08-21T15:58:07.645Z,1.60
2017-08-21T16:00:36.071Z,1.67
2017-08-21T16:03:04.600Z,1.13
2017-08-21T16:05:33.090Z,1.53
2017-08-21T16:08:01.563Z,1.77
2017-08-21T16:10:30.049Z,1.10
2017-08-21T16:12:58.538Z,1.30
2017-08-21T16:15:26.967Z,1.80
2017-08-21T16:17:55.501Z,1.37
2017-08-21T16:20:23.945Z,1.50
2017-08-21T16:22:52.452Z,0.90
2017-08-21T16:25:20.946Z,2.00
2017-08-21T16:27:49.392Z,1.40
2017-08-21T16:30:17.808Z,1.63
2017-08-21T16:32:46.295Z,2.20
2017-08-21T16:35:14.724Z,2.00
2017-08-21T16:37:43.253Z,1.80
2017-08-21T16:40:11.735Z,1.50
2017-08-21T16:42:40.190Z,1.80
2017-08-21T16:45:08.692Z,1.60
2017-08-21T16:47:37.154Z,1.70
2017-08-21T16:50:05.593Z,2.00
2017-08-21T16:52:34.043Z,1.20
2017-08-21T16:55:02.483Z,1.77
2017-08-21T16:57:30.908Z,1.87
2017-08-21T16:59:59.376Z,2.07
2017-08-21T17:02:27.851Z,1.87
2017-08-21T17:04:56.351Z,2.07
2017-08-21T17:07:24.834Z,2.50
2017-08-21T17:09:53.313Z,1.80
2017-08-21T17:12:21.745Z,1.53
2017-08-21T17:14:50.265Z,1.50
2017-08-21T17:17:18.716Z,1.60
2017-08-21T17:19:47.173Z,1.47
2017-08-21T17:22:15.707Z,1.30
2017-08-21T17:24:44.187Z,1.27
2017-08-21T17:27:12.681Z,1.40
2017-08-21T17:29:41.119Z,1.90
2017-08-21T17:32:09.544Z,1.90
2017-08-21T17:34:37.987Z,2.20
2017-08-21T17:37:06.503Z,2.70
2017-08-21T17:39:35.001Z,2.70
2017-08-21T17:42:03.468Z,2.50
2017-08-21T17:44:32.014Z,2.33
2017-08-21T17:47:00.445Z,2.40
2017-08-21T17:49:28.905Z,2.80
2017-08-21T17:51:57.406Z,1.83
2017-08-21T17:54:25.875Z,2.43
2017-08-21T17:56:54.334Z,2.43
2017-08-21T17:59:22.852Z,3.47
2017-08-21T18:01:51.291Z,2.80
2017-08-21T18:04:19.784Z,2.10
2017-08-21T18:06:48.299Z,1.30
2017-08-21T18:09:16.781Z,2.43
2017-08-21T18:11:45.261Z,2.13
2017-08-21T18:14:13.691Z,2.00
2017-08-21T18:16:42.153Z,1.43
2017-08-21T18:19:10.584Z,1.87
2017-08-21T18:21:39.080Z,1.83
2017-08-21T18:24:07.504Z,2.30
2017-08-21T18:26:36.046Z,2.20
2017-08-21T18:29:04.529Z,2.10
2017-08-21T18:31:32.983Z,2.27
2017-08-21T18:34:01.421Z,1.80
2017-08-21T18:36:29.960Z,1.80
2017-08-21T18:38:58.457Z,2.37
2017-08-21T18:41:26.928Z,3.50
2017-08-21T18:43:55.421Z,2.20
2017-08-21T18:46:23.866Z,2.30
2017-08-21T18:48:52.385Z,2.03
2017-08-21T18:51:20.871Z,2.63
2017-08-21T18:53:49.336Z,2.07
2017-08-21T18:56:17.833Z,2.00
2017-08-21T18:58:46.310Z,1.90
2017-08-21T19:01:14.788Z,2.00
2017-08-21T19:03:43.267Z,2.23
2017-08-21T19:06:11.757Z,2.00
2017-08-21T19:08:40.234Z,1.90
2017-08-21T19:11:08.664Z,2.10
2017-08-21T19:13:37.129Z,2.17
2017-08-21T19:16:05.553Z,2.13
2017-08-21T19:18:34.006Z,2.50
2017-08-21T19:21:02.432Z,3.30
2017-08-21T19:23:30.919Z,3.07
2017-08-21T19:25:59.414Z,2.43
2017-08-21T19:28:27.894Z,2.67
2017-08-21T19:30:56.378Z,3.20
2017-08-21T19:33:24.836Z,2.43
2017-08-21T19:35:54.037Z,2.03
2017-08-21T19:38:22.488Z,2.73
2017-08-21T19:40:51.012Z,1.90
2017-08-21T19:43:19.495Z,2.50
2017-08-21T19:45:47.933Z,2.90
2017-08-21T19:48:17.175Z,3.17
2017-08-21T19:50:45.613Z,3.70
2017-08-21T19:53:14.068Z,2.50
2017-08-21T19:55:42.505Z,2.43
2017-08-21T19:58:11.000Z,3.03
2017-08-21T20:00:39.459Z,2.47
2017-08-21T20:03:07.888Z,3.20
2017-08-21T20:05:36.342Z,3.27
2017-08-21T20:08:04.842Z,2.57
2017-08-21T20:10:33.318Z,2.50
2017-08-21T20:13:01.797Z,2.87
2017-08-21T20:15:30.279Z,2.93
2017-08-21T20:17:58.761Z,2.30
2017-08-21T20:20:27.204Z,2.60
2017-08-21T20:22:55.727Z,3.40
2017-08-21T20:25:24.177Z,2.20
2017-08-21T20:27:52.621Z,2.77
2017-08-21T20:30:21.172Z,2.37
2017-08-21T20:32:49.658Z,2.30
2017-08-21T20:35:18.118Z,2.23
2017-08-21T20:37:46.605Z,2.80
2017-08-21T20:40:15.083Z,2.17
2017-08-21T20:42:43.586Z,2.50
2017-08-21T20:45:12.051Z,2.50
2017-08-21T20:47:40.546Z,2.10
2017-08-21T20:50:08.992Z,2.20
2017-08-21T20:52:37.509Z,2.10
2017-08-21T20:55:06.000Z,2.00
2017-08-21T20:57:34.432Z,2.07
2017-08-21T21:00:02.954Z,2.70
2017-08-21T21:02:31.381Z,2.57
2017-08-21T21:04:59.918Z,1.90
2017-08-21T21:07:28.362Z,2.17
2017-08-21T21:09:56.817Z,2.10
2017-08-21T21:12:25.366Z,2.33
2017-08-21T21:14:53.817Z,1.80
2017-08-21T21:17:22.311Z,1.83
2017-08-21T21:19:50.769Z,2.10
2017-08-21T21:22:19.294Z,2.17
2017-08-21T21:24:47.779Z,2.00
2017-08-21T21:27:16.244Z,2.50
2017-08-21T21:29:44.727Z,2.40
2017-08-21T21:32:13.211Z,2.17
2017-08-21T21:34:41.691Z,1.80
2017-08-21T21:37:10.189Z,2.63
2017-08-21T21:39:38.611Z,1.90
2017-08-21T21:42:07.147Z,2.33
2017-08-21T21:44:35.629Z,2.03
2017-08-21T21:47:04.083Z,2.13
2017-08-21T21:49:32.519Z,2.30
2017-08-21T21:52:01.059Z,2.50
2017-08-21T21:54:29.580Z,2.70
2017-08-21T21:56:58.131Z,1.63
2017-08-21T21:59:26.620Z,2.60
2017-08-21T22:01:55.063Z,2.10
2017-08-21T22:04:23.584Z,2.07
2017-08-21T22:06:52.064Z,2.13
2017-08-21T22:09:20.486Z,2.17
2017-08-21T22:11:49.033Z,2.00
2017-08-21T22:14:17.513Z,2.17
2017-08-21T22:16:46.005Z,1.97
2017-08-21T22:19:14.468Z,2.20
2017-08-21T22:21:42.961Z,2.67
2017-08-21T22:24:11.423Z,2.20
2017-08-21T22:26:39.921Z,2.73
2017-08-21T22:29:08.395Z,2.30
2017-08-21T22:31:36.872Z,2.57
2017-08-21T22:34:05.363Z,2.90
2017-08-21T22:36:33.843Z,2.77
2017-08-21T22:39:02.336Z,1.93
2017-08-21T22:41:30.768Z,3.27
2017-08-21T22:43:59.299Z,2.80
2017-08-21T22:46:27.772Z,2.40
2017-08-21T22:48:56.216Z,2.40
2017-08-21T22:51:24.731Z,2.20
2017-08-21T22:53:53.216Z,2.40
2017-08-21T22:56:21.635Z,2.50
2017-08-21T22:58:50.094Z,2.23
2017-08-21T23:04:10.047Z,2.80
2017-08-21T23:06:38.568Z,2.50
2017-08-21T23:09:07.048Z,2.67
2017-08-21T23:11:35.472Z,2.53
2017-08-21T23:14:04.016Z,2.80
2017-08-21T23:16:32.502Z,2.60
2017-08-21T23:19:00.971Z,2.87
2017-08-21T23:21:29.420Z,3.10
2017-08-21T23:23:57.849Z,2.33
2017-08-21T23:26:26.324Z,2.90
2017-08-21T23:28:54.809Z,2.90
2017-08-21T23:31:23.294Z,2.90
2017-08-21T23:33:51.764Z,2.50
2017-08-21T23:36:20.207Z,2.77
2017-08-21T23:38:48.624Z,3.23
2017-08-21T23:41:17.067Z,2.60
2017-08-21T23:43:45.599Z,2.87
2017-08-21T23:46:14.067Z,2.90
2017-08-21T23:48:42.487Z,3.13
2017-08-21T23:51:10.926Z,2.73
2017-08-21T23:53:39.408Z,2.80
2017-08-21T23:56:07.871Z,3.07
2017-08-21T23:58:37.083Z,2.50
